Historique des stations

Station météo de Mainvilliers

Altitude de la station : 298 m







Données météorologiques pour le 20/10/2021
Date
Heure
Températures Humidité Point de rosée Vitesse
du vent
Direction Rafales Windchill Pression Pluviométrie
Cumul
Date
Heure
Températures Humidité Point de rosée Vitesse
du vent
Direction Rafales Windchill Pression Pluviométrie
Cumul
20/10/2021 23:5913.0 °C79 %9.4 °C26 km/hSSO79 km/h9.4 999 hPa2.4 mm
20/10/2021 23:4413.0 °C81 %10.0 °C19 km/hESE79 km/h10.0 999 hPa2.4 mm
20/10/2021 23:2913.3 °C82 %10.6 °C27 km/hS79 km/h9.4 999 hPa2.4 mm
20/10/2021 23:1413.1 °C87 %11.1 °C27 km/hSSE79 km/h9.4 999 hPa2.4 mm
20/10/2021 22:5913.0 °C87 %11.1 °C8 km/hS79 km/h12.2 999 hPa2.2 mm
20/10/2021 22:4413.1 °C87 %11.1 °C19 km/hSSE79 km/h10.6 999 hPa1.6 mm
20/10/2021 22:2913.6 °C86 %11.1 °C29 km/hOSO79 km/h9.4 999 hPa0.8 mm
20/10/2021 22:1316.9 °C76 %12.8 °C31 km/hSSE56 km/h13.3 997 hPa0.4 mm
20/10/2021 21:5917.2 °C74 %12.8 °C19 km/hSSE56 km/h15.0 998 hPa0.4 mm
20/10/2021 21:4417.2 °C74 %12.8 °C26 km/hSSE56 km/h14.4 999 hPa0.4 mm
20/10/2021 21:2917.1 °C75 %12.8 °C29 km/hSSE56 km/h13.9 999 hPa0.4 mm
20/10/2021 21:1417.1 °C76 %12.8 °C23 km/hSSO56 km/h15.0 1000 hPa0.4 mm
20/10/2021 20:5917.2 °C77 %13.3 °C26 km/hS53 km/h14.4 1000 hPa0.4 mm
20/10/2021 20:4417.2 °C78 %13.3 °C18 km/hS48 km/h15.6 1001 hPa0.4 mm
20/10/2021 20:2917.3 °C77 %13.3 °C29 km/hSSE48 km/h13.9 1001 hPa0.4 mm
20/10/2021 20:1417.3 °C76 %13.3 °C19 km/hSE48 km/h15.0 1002 hPa0.4 mm
20/10/2021 19:5917.4 °C76 %13.3 °C18 km/hSE48 km/h15.6 1002 hPa0.4 mm
20/10/2021 19:4417.6 °C75 %13.3 °C18 km/hSE48 km/h16.1 1003 hPa0.4 mm
20/10/2021 19:2917.8 °C74 %13.3 °C19 km/hSE47 km/h16.1 1003 hPa0.4 mm
20/10/2021 19:1418.0 °C75 %13.3 °C29 km/hSSE47 km/h14.4 1003 hPa0.4 mm
20/10/2021 18:5918.2 °C74 %13.3 °C18 km/hSE47 km/h16.7 1003 hPa0.4 mm
20/10/2021 18:4418.3 °C74 %13.9 °C14 km/hSE47 km/h17.2 1004 hPa0.4 mm
20/10/2021 18:2918.6 °C74 %13.9 °C14 km/hSSO47 km/h17.2 1004 hPa0.4 mm
20/10/2021 18:1418.7 °C74 %13.9 °C16 km/hS47 km/h17.8 1005 hPa0.4 mm
20/10/2021 17:5918.9 °C74 %14.4 °C21 km/hSE47 km/h16.7 1005 hPa0.4 mm
20/10/2021 17:4418.9 °C74 %14.4 °C35 km/hSE47 km/h15.6 1005 hPa0.4 mm
20/10/2021 17:2919.2 °C75 %14.4 °C8 km/hSSE47 km/h19.4 1005 hPa0.4 mm
20/10/2021 17:1419.2 °C75 %14.4 °C19 km/hSSE47 km/h17.8 1006 hPa0.4 mm
20/10/2021 16:5919.2 °C74 %14.4 °C14 km/hS47 km/h18.3 1006 hPa0.4 mm
20/10/2021 16:4419.3 °C72 %13.9 °C26 km/hSSO47 km/h16.7 1006 hPa0.4 mm
20/10/2021 16:2919.5 °C75 %15.0 °C24 km/hSSE47 km/h17.2 1006 hPa0.4 mm
20/10/2021 16:1419.6 °C76 %15.0 °C23 km/hS47 km/h17.2 1007 hPa0.4 mm
20/10/2021 15:5919.4 °C76 %15.0 °C16 km/hS47 km/h18.3 1007 hPa0.4 mm
20/10/2021 15:4419.4 °C74 %14.4 °C14 km/hSSO47 km/h18.3 1008 hPa0.4 mm
20/10/2021 15:2919.3 °C76 %15.0 °C19 km/hSSE47 km/h17.8 1008 hPa0.4 mm
20/10/2021 15:1419.2 °C77 %15.0 °C21 km/hS47 km/h17.2 1008 hPa0.4 mm
20/10/2021 14:5919.0 °C77 %15.0 °C32 km/hS47 km/h15.6 1008 hPa0.4 mm
20/10/2021 14:4418.8 °C79 %15.0 °C13 km/hSSE47 km/h18.3 1009 hPa0.4 mm
20/10/2021 14:2918.6 °C79 %15.0 °C18 km/hSSE47 km/h17.2 1009 hPa0.4 mm
20/10/2021 14:1418.8 °C80 %15.6 °C19 km/hS47 km/h17.2 1009 hPa0.4 mm
20/10/2021 13:5918.2 °C82 %15.0 °C24 km/hS43 km/h15.6 1009 hPa0.4 mm
20/10/2021 13:4418.1 °C84 %15.6 °C13 km/hSSE43 km/h17.8 1010 hPa0.4 mm
20/10/2021 13:2918.1 °C84 %15.6 °C16 km/hSO42 km/h16.7 1010 hPa0.4 mm
20/10/2021 13:1418.1 °C85 %15.6 °C18 km/hS42 km/h16.7 1010 hPa0.4 mm
20/10/2021 13:0017.6 °C87 %15.6 °C18 km/hSSO40 km/h16.1 1010 hPa0.4 mm
20/10/2021 12:4416.8 °C90 %15.0 °C11 km/hSE40 km/h16.1 1010 hPa0.4 mm
20/10/2021 12:2916.4 °C90 %15.0 °C14 km/hS40 km/h15.6 1010 hPa0.4 mm
20/10/2021 12:1416.5 °C90 %15.0 °C16 km/hSSE40 km/h15.0 1010 hPa0.4 mm
20/10/2021 11:5916.3 °C91 %15.0 °C24 km/hS40 km/h13.3 1010 hPa0.4 mm
20/10/2021 11:4416.1 °C91 %14.4 °C23 km/hSSE40 km/h13.3 1011 hPa0.4 mm
20/10/2021 11:2916.0 °C91 %14.4 °C16 km/hS40 km/h14.4 1011 hPa0.4 mm
20/10/2021 11:1415.9 °C91 %14.4 °C27 km/hS40 km/h12.8 1011 hPa0.4 mm
20/10/2021 10:5915.8 °C91 %14.4 °C8 km/hSE40 km/h16.1 1011 hPa0.4 mm
20/10/2021 10:4415.6 °C91 %14.4 °C21 km/hSSE40 km/h13.3 1011 hPa0.4 mm
20/10/2021 10:2915.6 °C91 %13.9 °C13 km/hSSO40 km/h14.4 1011 hPa0.4 mm
20/10/2021 10:1415.5 °C91 %13.9 °C21 km/hSSE40 km/h13.3 1011 hPa0.4 mm
20/10/2021 09:5915.4 °C91 %13.9 °C16 km/hS40 km/h13.9 1011 hPa0.4 mm
20/10/2021 09:4415.3 °C91 %13.9 °C13 km/hSSO40 km/h14.4 1011 hPa0.4 mm
20/10/2021 09:2915.2 °C91 %13.9 °C16 km/hS40 km/h13.3 1011 hPa0.4 mm
20/10/2021 09:1415.2 °C91 %13.9 °C26 km/hSSE40 km/h11.7 1010 hPa0.4 mm
20/10/2021 08:5915.1 °C90 %13.3 °C18 km/hS40 km/h12.8 1010 hPa0.4 mm
20/10/2021 08:4414.9 °C90 %13.3 °C21 km/hSE40 km/h12.8 1010 hPa0.4 mm
20/10/2021 08:2915.0 °C90 %13.3 °C21 km/hSE34 km/h12.8 1010 hPa0.4 mm
20/10/2021 08:1415.1 °C89 %13.3 °C14 km/hSSE34 km/h13.3 1011 hPa0.2 mm
20/10/2021 07:5915.4 °C87 %13.3 °C14 km/hSSE34 km/h14.4 1011 hPa-
20/10/2021 07:4415.4 °C86 %13.3 °C10 km/hS29 km/h15.0 1011 hPa-
20/10/2021 07:2915.3 °C86 %13.3 °C21 km/hSSE29 km/h13.3 1011 hPa-
20/10/2021 07:1415.2 °C86 %12.8 °C14 km/hSSE29 km/h13.3 1011 hPa-
20/10/2021 06:5915.1 °C86 %12.8 °C14 km/hSSE29 km/h13.3 1012 hPa-
20/10/2021 06:4415.2 °C86 %12.8 °C13 km/hS29 km/h13.9 1012 hPa-
20/10/2021 06:2915.1 °C87 %12.8 °C14 km/hSSE29 km/h13.3 1012 hPa-
20/10/2021 06:1414.8 °C87 %12.8 °C8 km/hSSE29 km/h15.0 1012 hPa-
20/10/2021 05:5914.7 °C88 %12.8 °C13 km/hSSE29 km/h13.9 1012 hPa-
20/10/2021 05:4414.5 °C88 %12.8 °C8 km/hSE29 km/h14.4 1012 hPa-
20/10/2021 05:2914.4 °C88 %12.2 °C6 km/hSE29 km/h14.4 1012 hPa-
20/10/2021 05:1414.4 °C88 %12.8 °C6 km/hSE29 km/h14.4 1012 hPa-
20/10/2021 04:5914.6 °C87 %12.2 °C16 km/hSSE29 km/h12.8 1012 hPa-
20/10/2021 04:4414.6 °C87 %12.2 °C10 km/hSSE29 km/h13.9 1013 hPa-
20/10/2021 04:2914.6 °C86 %12.2 °C10 km/hSSE29 km/h13.9 1012 hPa-
20/10/2021 04:1414.7 °C86 %12.2 °C8 km/hESE29 km/h15.0 1013 hPa-
20/10/2021 03:5914.7 °C85 %12.2 °C18 km/hSE29 km/h12.8 1013 hPa-
20/10/2021 03:4414.8 °C85 %12.2 °C21 km/hSSE29 km/h12.8 1013 hPa-
20/10/2021 03:2914.8 °C85 %12.2 °C16 km/hESE26 km/h13.3 1013 hPa-
20/10/2021 03:1414.8 °C84 %12.2 °C13 km/hSSE26 km/h13.9 1013 hPa-
20/10/2021 02:5915.1 °C83 %12.2 °C8 km/hSSE26 km/h15.0 1014 hPa-
20/10/2021 02:4415.1 °C83 %12.2 °C8 km/hS26 km/h15.0 1014 hPa-
20/10/2021 02:2915.3 °C82 %12.2 °C10 km/hSE26 km/h15.0 1014 hPa-
20/10/2021 02:1415.4 °C81 %12.2 °C11 km/hSSE26 km/h15.0 1014 hPa-
20/10/2021 01:5915.6 °C81 %12.2 °C10 km/hS26 km/h15.0 1014 hPa-
20/10/2021 01:4415.5 °C80 %12.2 °C8 km/hS26 km/h15.6 1015 hPa-
20/10/2021 01:2915.6 °C79 %12.2 °C10 km/hSSE26 km/h15.0 1015 hPa-
20/10/2021 01:1415.8 °C78 %12.2 °C16 km/hSE26 km/h13.9 1015 hPa-
20/10/2021 00:5915.9 °C77 %11.7 °C10 km/hSSE26 km/h16.1 1015 hPa-
20/10/2021 00:4415.6 °C78 %11.7 °C11 km/hS16 km/h15.0 1015 hPa-
20/10/2021 00:2915.4 °C77 %11.1 °C8 km/hSSE16 km/h15.6 1015 hPa-
20/10/2021 00:1415.6 °C76 %11.7 °C13 km/hSSE16 km/h14.4 1016 hPa-


Minima :

Température : 13.0 °C
Humidité : 72 %
Point de rosée : 9.4 °C
Vent moyen : 6 km/h
Windchill : 9.4
Pression atm. : 997 hPa
Maxima :

Température : 19.6 °C
Humidité : 91 %
Point de rosée : 15.6 °C
Vent moyen : 35 km/h
Windchill : 19.4
Pression atm. : 1016 hPa
Rafales max : 79 km/h
Cumul de pluie sur 24H : 2.4 mm

Mainvilliers est une commune du département Eure-et-Loir (28).
La station météorologique du réseau de l'association la plus proche de Mainvilliers est celle de Chaudon
Site du propriétaire de la station : http://meteo28300.fr/



Icône Facebook Association Météo Centre Icône Twitter Association Météo Centre Icône Chaîne Youtube Association Météo Centre Icône contact Association Météo Centre Icône Insta Association Météo Centre